Fort Kent, Maine
Current Conditions -  °F | °C
As of 3:53 AM on Monday 24 Nov 2014 (Local Time) from KFVE Reporting Station
Overcast Overcast  
Wind Chill: 27°   Ceiling: 3400
Heat Index: 34°   Visibility: 10mi
Dew Point: 32°   Wind: 8mph
Humidity: 92%   Direction: 130°SE
Pressure: 30"   Gusts: NA
Location:  47.26°N, 68.59°W
Report Text: KFVE 240853Z AUTO 13007KT 10SM OVC034 01/00 A3000 RMK AO2 SLP169 T00110000 58017
Loading
Personal Weather Stations






























Interactive Weather Map New forecast layout! Learn more

10-Day Weather Forecast

Advertisements
Track Severe Weather on mobile